Time,TemperatureF,DewpointF,PressureIn,WindDirection,WindDirectionDegrees,WindSpeedMPH,WindSpeedGustMPH,Humidity,HourlyPrecipIn,Conditions,Clouds,dailyrainin,SolarRadiationWatts/m^2,SoftwareType,DateUTC
2014-02-04 00:02:00,-1.0,-7.0,-100.00,NE,49,2.0,3.0,76,0.00,,,0.06,0.000000,,2014-02-04 06:02:00,
2014-02-04 05:42:00,2.0,-4.0,-100.00,NNE,28,3.0,3.0,76,0.00,,,0.06,0.000000,,2014-02-04 11:42:00,
2014-02-04 05:52:00,2.0,-4.0,-100.00,NNE,28,3.0,3.0,76,0.00,,,0.06,0.000000,,2014-02-04 11:52:00,
2014-02-04 06:02:00,2.0,-4.0,-100.00,NNE,28,3.0,3.0,76,0.00,,,0.06,0.000000,,2014-02-04 12:02:00,
2014-02-04 06:42:00,3.0,-2.0,-100.00,South,182,2.0,3.0,78,0.00,,,0.06,0.000000,,2014-02-04 12:42:00,
2014-02-04 06:52:00,3.0,-2.0,-100.00,South,182,2.0,3.0,78,0.00,,,0.06,0.000000,,2014-02-04 12:52:00,
2014-02-04 07:02:00,3.0,-2.0,-100.00,South,182,2.0,3.0,78,0.00,,,0.06,0.000000,,2014-02-04 13:02:00,
2014-02-04 07:42:00,4.0,-1.0,-100.00,ENE,64,1.0,3.0,78,0.00,,,0.06,0.000000,,2014-02-04 13:42:00,
2014-02-04 07:52:00,4.0,-1.0,-100.00,ENE,64,1.0,3.0,78,0.00,,,0.06,0.000000,,2014-02-04 13:52:00,
2014-02-04 08:02:00,4.0,-1.0,-100.00,ENE,64,1.0,3.0,78,0.00,,,0.06,0.000000,,2014-02-04 14:02:00,
2014-02-04 08:42:00,9.0,2.0,-100.00,NNE,21,2.0,2.0,71,0.00,,,0.06,31.000000,,2014-02-04 14:42:00,
2014-02-04 08:53:00,9.0,2.0,-100.00,NNE,21,2.0,2.0,71,0.00,,,0.06,31.000000,,2014-02-04 14:53:00,
2014-02-04 09:02:00,9.0,2.0,-100.00,NNE,21,2.0,2.0,71,0.00,,,0.06,31.000000,,2014-02-04 15:02:00,
2014-02-04 09:44:00,15.0,4.0,-100.00,NE,48,1.0,2.0,60,0.00,,,0.06,109.000000,,2014-02-04 15:44:00,
2014-02-04 09:53:00,15.0,4.0,-100.00,NE,48,1.0,2.0,60,0.00,,,0.06,109.000000,,2014-02-04 15:53:00,
2014-02-04 10:04:00,15.0,4.0,-100.00,NE,48,1.0,2.0,60,0.00,,,0.06,109.000000,,2014-02-04 16:04:00,
2014-02-04 10:43:00,19.0,4.0,-100.00,ENE,60,4.0,6.0,51,0.00,,,0.06,286.000000,,2014-02-04 16:43:00,
2014-02-04 10:53:00,19.0,4.0,-100.00,ENE,60,4.0,6.0,51,0.00,,,0.06,286.000000,,2014-02-04 16:53:00,
2014-02-04 11:02:00,19.0,4.0,-100.00,ENE,60,4.0,6.0,51,0.00,,,0.06,286.000000,,2014-02-04 17:02:00,
2014-02-04 11:42:00,20.0,5.0,-100.00,ENE,76,5.0,7.0,51,0.00,,,0.06,234.000000,,2014-02-04 17:42:00,
2014-02-04 11:53:00,20.0,5.0,-100.00,ENE,76,5.0,7.0,51,0.00,,,0.06,234.000000,,2014-02-04 17:53:00,
2014-02-04 12:02:00,20.0,5.0,-100.00,ENE,76,5.0,7.0,51,0.00,,,0.06,234.000000,,2014-02-04 18:02:00,
2014-02-04 12:43:00,21.0,9.0,-100.00,East,79,5.0,7.0,60,0.00,,,0.04,208.000000,,2014-02-04 18:43:00,
2014-02-04 12:52:00,21.0,9.0,-100.00,East,79,5.0,7.0,60,0.00,,,0.04,208.000000,,2014-02-04 18:52:00,
2014-02-04 13:01:00,21.0,9.0,-100.00,East,79,5.0,7.0,60,0.00,,,0.04,208.000000,,2014-02-04 19:01:00,
2014-02-04 13:42:00,22.0,11.0,-100.00,East,80,4.0,6.0,61,0.00,,,0.01,177.000000,,2014-02-04 19:42:00,
2014-02-04 13:52:00,22.0,11.0,-100.00,East,80,4.0,6.0,61,0.00,,,0.01,177.000000,,2014-02-04 19:52:00,
2014-02-04 14:01:00,22.0,11.0,-100.00,East,80,4.0,6.0,61,0.00,,,0.01,177.000000,,2014-02-04 20:01:00,
2014-02-04 14:42:00,23.0,8.0,-100.00,ESE,112,6.0,10.0,52,0.00,,,0.00,161.000000,,2014-02-04 20:42:00,
2014-02-04 14:53:00,23.0,8.0,-100.00,ESE,112,6.0,10.0,52,0.00,,,0.00,161.000000,,2014-02-04 20:53:00,
2014-02-04 15:02:00,23.0,8.0,-100.00,ESE,112,6.0,10.0,52,0.00,,,0.00,161.000000,,2014-02-04 21:02:00,
2014-02-04 15:43:00,23.0,10.0,-100.00,East,81,4.0,5.0,57,0.00,,,-99.99,109.000000,,2014-02-04 21:43:00,
2014-02-04 15:54:00,23.0,10.0,-100.00,East,81,4.0,5.0,57,0.00,,,-99.99,109.000000,,2014-02-04 21:54:00,
2014-02-04 16:03:00,23.0,10.0,-100.00,East,81,4.0,5.0,57,0.00,,,-99.99,109.000000,,2014-02-04 22:03:00,
2014-02-04 16:43:00,22.0,18.0,-100.00,ENE,71,8.0,12.0,85,0.00,,,0.00,77.000000,,2014-02-04 22:43:00,
2014-02-04 16:52:00,22.0,18.0,-100.00,ENE,71,8.0,12.0,85,0.00,,,0.00,77.000000,,2014-02-04 22:52:00,
2014-02-04 17:02:00,22.0,18.0,-100.00,ENE,71,8.0,12.0,85,0.00,,,0.00,77.000000,,2014-02-04 23:02:00,
2014-02-04 17:42:00,21.0,18.0,-100.00,East,84,8.0,13.0,89,0.00,,,0.00,21.000000,,2014-02-04 23:42:00,
2014-02-04 17:52:00,21.0,18.0,-100.00,East,84,8.0,13.0,89,0.00,,,0.00,21.000000,,2014-02-04 23:52:00,
2014-02-04 18:02:00,21.0,18.0,-100.00,East,84,8.0,13.0,89,0.00,,,0.00,21.000000,,2014-02-05 00:02:00,
2014-02-04 18:42:00,19.0,16.0,-100.00,ENE,75,10.0,15.0,87,0.00,,,0.00,1.000000,,2014-02-05 00:42:00,
2014-02-04 18:52:00,19.0,16.0,-100.00,ENE,75,10.0,15.0,87,0.00,,,0.00,1.000000,,2014-02-05 00:52:00,
2014-02-04 19:02:00,19.0,16.0,-100.00,ENE,75,10.0,15.0,87,0.00,,,0.00,1.000000,,2014-02-05 01:02:00,
2014-02-04 19:42:00,19.0,17.0,-100.00,NE,52,5.0,9.0,90,0.00,,,0.00,0.000000,,2014-02-05 01:42:00,
2014-02-04 19:53:00,19.0,17.0,-100.00,NE,52,5.0,9.0,90,0.00,,,0.00,0.000000,,2014-02-05 01:53:00,
2014-02-04 20:01:00,19.0,17.0,-100.00,NE,52,5.0,9.0,90,0.00,,,0.00,0.000000,,2014-02-05 02:01:00,
2014-02-04 20:42:00,20.0,18.0,-100.00,ENE,67,8.0,14.0,90,0.00,,,0.00,0.000000,,2014-02-05 02:42:00,
2014-02-04 20:53:00,20.0,18.0,-100.00,ENE,67,8.0,14.0,90,0.00,,,0.00,0.000000,,2014-02-05 02:53:00,
2014-02-04 21:02:00,20.0,18.0,-100.00,ENE,67,8.0,14.0,90,0.00,,,0.00,0.000000,,2014-02-05 03:02:00,
2014-02-04 21:44:00,21.0,18.0,-100.00,NE,52,9.0,13.0,87,0.00,,,0.00,0.000000,,2014-02-05 03:44:00,
2014-02-04 21:54:00,21.0,18.0,-100.00,NE,52,9.0,13.0,87,0.00,,,0.00,0.000000,,2014-02-05 03:54:00,
2014-02-04 22:03:00,21.0,18.0,-100.00,NE,52,9.0,13.0,87,0.00,,,0.00,0.000000,,2014-02-05 04:03:00,
2014-02-04 22:43:00,21.0,18.0,-100.00,NE,36,12.0,19.0,87,0.00,,,0.00,0.000000,,2014-02-05 04:43:00,
2014-02-04 22:53:00,21.0,18.0,-100.00,NE,36,12.0,19.0,87,0.00,,,0.00,0.000000,,2014-02-05 04:53:00,
2014-02-04 23:02:00,21.0,18.0,-100.00,NE,36,12.0,19.0,87,0.00,,,0.00,0.000000,,2014-02-05 05:02:00,
2014-02-04 23:43:00,22.0,18.0,-100.00,NE,39,11.0,16.0,85,0.00,,,0.00,0.000000,,2014-02-05 05:43:00,
2014-02-04 23:53:00,22.0,18.0,-100.00,NE,39,11.0,16.0,85,0.00,,,0.00,0.000000,,2014-02-05 05:53:00,